Latest Weather Observations for Darwin Harbour

IDD60901

Issued at 9:11 pm CST Friday 16 November 2018 (issued every 10 minutes, with the page automatically refreshed every 10 minutes)

About weather observations | Map of Darwin area stations | Latest observations for Darwin area | Other Formats
Station Details ID: 014072 Name: DARWIN NTC AWS Lat: -12.47 Lon: 130.85 Height: 0.0 m
Data from the previous 72 hours. | See also: Recent months for locations in Northern Territory
Date/Time
CST
Temp
°C
App
Temp
°C
Dew
Point
°C
Rel
Hum
%
Delta-T
°C
Wind Press
QNH
hPa
Press
MSL
hPa
Rain since
9am
mm
Dir  Spd
km/h
Gust
km/h
Spd
kts
Gust
kts
16/09:00pm 29.9 - - - - NNW 9 20 5 11 1009.5 1009.4 -
16/08:30pm 30.2 - - - - NW 9 20 5 11 1009.2 1009.1 -
16/08:00pm 30.0 - - - - NNW 9 24 5 13 1008.8 1008.7 -
16/07:30pm 30.0 - - - - NW 9 19 5 10 1008.3 1008.2 -
16/07:00pm 30.3 - - - - NNW 15 28 8 15 1007.7 1007.6 -
16/06:30pm 31.4 - - - - NW 9 19 5 10 1007.1 1007.0 -
16/06:00pm 31.9 - - - - NW 11 19 6 10 1006.7 1006.6 -
16/05:30pm 32.0 - - - - NW 11 24 6 13 1006.8 1006.7 -
16/05:00pm 33.5 - - - - NW 7 15 4 8 1006.6 1006.5 -
16/04:30pm 32.3 - - - - W 9 13 5 7 1006.7 1006.6 -
16/04:00pm 31.9 - - - - WNW 6 13 3 7 1007.1 1007.0 -
16/03:30pm 32.6 - - - - WNW 9 17 5 9 1007.7 1007.6 -
16/03:00pm 32.6 - - - - WNW 9 17 5 9 1008.0 1007.9 -
16/02:30pm 32.6 - - - - WNW 13 19 7 10 1008.1 1008.0 -
16/02:00pm 31.9 - - - - W 7 11 4 6 1008.4 1008.3 -
16/01:30pm 31.7 - - - - SW 9 11 5 6 1008.9 1008.8 -
16/01:00pm 30.9 - - - - SW 13 17 7 9 1009.3 1009.2 -
16/12:30pm 31.1 - - - - SW 9 11 5 6 1009.8 1009.7 -
16/12:00pm 31.4 - - - - SSE 6 9 3 5 1010.4 1010.3 -
16/11:30am 29.6 - - - - SW 6 7 3 4 1010.8 1010.7 -
16/11:00am 29.5 - - - - SW 4 6 2 3 1011.2 1011.1 -
16/10:30am 28.9 - - - - SW 6 7 3 4 1011.4 1011.3 -
16/10:00am 28.5 - - - - SW 4 6 2 3 1011.5 1011.4 -
16/09:30am 29.0 - - - - SSW 2 4 1 2 1011.4 1011.3 -
16/09:00am 27.8 - - - - SW 4 6 2 3 1011.1 1011.0 -
16/08:30am 27.5 - - - - ESE 4 9 2 5 1011.3 1011.2 -
16/08:00am 27.5 - - - - ENE 4 7 2 4 1011.3 1011.2 -
16/07:30am 26.5 - - - - ENE 6 13 3 7 1011.0 1010.9 -
16/07:00am 25.9 - - - - ENE 9 17 5 9 1010.6 1010.5 -
16/06:30am 25.7 - - - - ENE 7 17 4 9 1010.3 1010.2 -
16/06:00am 25.7 - - - - ENE 9 17 5 9 1009.7 1009.6 -
16/05:30am 25.6 - - - - ENE 11 19 6 10 1009.8 1009.7 -
16/05:00am 26.1 - - - - ENE 20 32 11 17 1009.7 1009.6 -
16/04:30am 26.8 - - - - E 24 32 13 17 1009.5 1009.4 -
16/04:00am 26.9 - - - - E 17 20 9 11 1009.5 1009.4 -
16/03:30am 26.4 - - - - E 11 19 6 10 1009.4 1009.3 -
16/03:00am 26.0 - - - - ENE 9 15 5 8 1009.5 1009.4 -
16/02:30am 26.4 - - - - ENE 6 11 3 6 1009.8 1009.7 -
16/02:00am 26.2 - - - - E 9 13 5 7 1010.2 1010.1 -
16/01:30am 25.6 - - - - ENE 11 17 6 9 1009.9 1009.8 -
16/01:00am 25.9 - - - - ENE 11 19 6 10 1009.8 1009.7 -
16/12:30am 25.6 - - - - SE 9 17 5 9 1010.6 1010.5 -
16/12:00am 25.8 - - - - E 11 15 6 8 1011.0 1010.9 -
 
Date/Time
CST
Temp
°C
App
Temp
°C
Dew
Point
°C
Rel
Hum
%
Delta-T
°C
Wind Press
QNH
hPa
Press
MSL
hPa
Rain since
9am
mm
Dir  Spd
km/h
Gust
km/h
Spd
kts
Gust
kts
15/11:30pm 25.6 - - - - W 4 7 2 4 1011.6 1011.5 -
15/11:00pm 25.6 - - - - SSE 20 28 11 15 1012.8 1012.7 -
15/10:30pm 26.8 - - - - SE 11 20 6 11 1012.3 1012.2 -
15/10:00pm 27.2 - - - - ENE 20 32 11 17 1011.2 1011.1 -
15/09:30pm 28.8 - - - - ENE 30 43 16 23 1010.4 1010.3 -
15/09:27pm 29.3 - - - - ENE 28 43 15 23 1010.2 1010.1 -
15/09:00pm 30.7 - - - - WNW 6 9 3 5 1010.1 1010.0 -
15/08:30pm 30.9 - - - - NW 6 9 3 5 1009.6 1009.5 -
15/08:00pm 31.4 - - - - W 9 15 5 8 1008.9 1008.8 -
15/07:30pm 31.4 - - - - NNW 6 9 3 5 1008.3 1008.2 -
15/07:00pm 31.4 - - - - NNW 6 9 3 5 1008.1 1008.0 -
15/06:30pm 31.8 - - - - N 9 15 5 8 1007.9 1007.8 -
15/06:00pm 32.2 - - - - N 7 15 4 8 1007.6 1007.5 -
15/05:30pm 32.1 - - - - N 13 19 7 10 1007.4 1007.3 -
15/05:00pm 32.1 - - - - NW 9 17 5 9 1007.3 1007.2 -
15/04:30pm 32.3 - - - - NW 7 15 4 8 1007.5 1007.4 -
15/04:00pm 33.1 - - - - NW 7 17 4 9 1007.7 1007.6 -
15/03:30pm 32.8 - - - - W 11 19 6 10 1008.2 1008.1 -
15/03:00pm 32.2 - - - - WSW 2 4 1 2 1008.6 1008.5 -
15/02:30pm 31.9 - - - - SW 4 6 2 3 1009.0 1008.9 -
15/02:00pm 31.8 - - - - WSW 6 9 3 5 1009.6 1009.5 -
15/01:30pm 32.6 - - - - SE 2 6 1 3 1010.0 1009.9 -
15/01:00pm 30.4 - - - - S 4 11 2 6 1010.3 1010.2 -
15/12:30pm 29.8 - - - - SSW 9 15 5 8 1010.8 1010.7 -
15/12:00pm 29.7 - - - - SE 4 7 2 4 1011.3 1011.2 -
15/11:30am 30.1 - - - - E 4 7 2 4 1011.5 1011.4 -
15/11:00am 28.8 - - - - E 11 19 6 10 1012.1 1012.0 -
15/10:30am 27.6 - - - - SE 19 24 10 13 1012.2 1012.1 -
15/10:00am 27.0 - - - - SE 22 32 12 17 1012.5 1012.4 -
15/09:30am 25.9 - - - - SSE 20 28 11 15 1012.2 1012.1 -
15/09:00am 25.6 - - - - SE 24 28 13 15 1011.9 1011.8 -
15/08:30am 25.8 - - - - SE 20 26 11 14 1011.6 1011.5 -
15/08:00am 25.5 - - - - E 11 19 6 10 1011.5 1011.4 -
15/07:30am 24.5 - - - - NNE 11 26 6 14 1011.0 1010.9 -
15/07:00am 24.6 - - - - ENE 15 32 8 17 1011.1 1011.0 -
15/06:30am 25.5 - - - - NE 15 26 8 14 1010.7 1010.6 -
15/06:00am 25.9 - - - - NNE 11 20 6 11 1009.9 1009.8 -
15/05:30am 24.0 - - - - NW 9 13 5 7 1009.8 1009.7 -
15/05:00am 23.4 - - - - NE 15 35 8 19 1010.5 1010.4 -
15/04:30am 23.4 - - - - ENE 32 50 17 27 1010.7 1010.6 -
15/04:00am 23.9 - - - - E 39 65 21 35 1010.3 1010.2 -
15/03:57am 24.8 - - - - E 28 65 15 35 1009.7 1009.6 -
15/03:55am 26.7 - - - - E 20 48 11 26 1009.7 1009.6 -
15/03:30am 26.9 - - - - CALM 0 4 0 2 1009.1 1009.0 -
15/03:00am 27.3 - - - - WNW 2 7 1 4 1009.4 1009.3 -
15/02:30am 26.9 - - - - NW 4 6 2 3 1009.2 1009.1 -
15/02:00am 26.4 - - - - SE 4 9 2 5 1009.4 1009.3 -
15/01:30am 25.3 - - - - E 6 13 3 7 1009.6 1009.5 -
15/01:00am 28.2 - - - - NNE 4 13 2 7 1009.8 1009.7 -
15/12:30am 29.3 - - - - W 11 20 6 11 1009.6 1009.5 -
15/12:00am 29.7 - - - - NW 7 13 4 7 1009.9 1009.8 -
 
Date/Time
CST
Temp
°C
App
Temp
°C
Dew
Point
°C
Rel
Hum
%
Delta-T
°C
Wind Press
QNH
hPa
Press
MSL
hPa
Rain since
9am
mm
Dir  Spd
km/h
Gust
km/h
Spd
kts
Gust
kts
14/11:30pm 29.9 - - - - WNW 15 19 8 10 1010.1 1010.0 -
14/11:00pm 29.9 - - - - W 15 19 8 10 1010.6 1010.5 -
14/10:30pm 29.9 - - - - W 13 19 7 10 1010.5 1010.4 -
14/10:00pm 29.8 - - - - W 13 19 7 10 1009.8 1009.7 -
14/09:30pm 29.8 - - - - W 17 22 9 12 1009.4 1009.3 -
14/09:00pm 29.9 - - - - W 17 22 9 12 1009.1 1009.0 -
14/08:30pm 30.2 - - - - WNW 17 22 9 12 1008.3 1008.2 -
14/08:00pm 30.8 - - - - WNW 9 17 5 9 1008.1 1008.0 -
14/07:30pm 30.6 - - - - NW 11 19 6 10 1007.9 1007.8 -
14/07:00pm 31.1 - - - - WNW 15 22 8 12 1007.7 1007.6 -
14/06:30pm 30.9 - - - - WNW 19 26 10 14 1007.1 1007.0 -
14/06:00pm 31.3 - - - - W 15 22 8 12 1006.8 1006.7 -
14/05:30pm 30.4 - - - - W 15 19 8 10 1006.7 1006.6 -
14/05:00pm 30.6 - - - - W 19 24 10 13 1007.0 1006.9 -
14/04:30pm 33.5 - - - - WNW 7 13 4 7 1007.1 1007.0 -
14/04:00pm 33.4 - - - - W 15 24 8 13 1006.8 1006.7 -
14/03:30pm 31.2 - - - - W 15 19 8 10 1006.9 1006.8 -
14/03:00pm 30.7 - - - - WSW 11 15 6 8 1006.7 1006.6 -
14/02:30pm 30.7 - - - - WNW 11 17 6 9 1007.3 1007.2 -
14/02:00pm 31.0 - - - - W 13 20 7 11 1008.0 1007.9 -
14/01:30pm 31.8 - - - - WNW 11 19 6 10 1008.5 1008.4 -
14/01:00pm 31.5 - - - - WNW 13 19 7 10 1008.9 1008.8 -
14/12:30pm 31.9 - - - - WNW 7 15 4 8 1009.3 1009.2 -
14/12:00pm 30.9 - - - - W 11 17 6 9 1009.7 1009.6 -
14/11:30am 31.8 - - - - SSE 7 11 4 6 1009.9 1009.8 -
14/11:00am 31.2 - - - - SE 9 15 5 8 1010.2 1010.1 -
14/10:30am 30.8 - - - - ESE 13 17 7 9 1010.3 1010.2 -
14/10:00am 31.2 - - - - E 13 17 7 9 1010.4 1010.3 -
14/09:30am 30.5 - - - - ENE 13 19 7 10 1010.5 1010.4 -
14/09:00am 29.8 - - - - ENE 11 19 6 10 1010.4 1010.3 -
14/08:30am 29.1 - - - - ENE 9 15 5 8 1010.2 1010.1 -
14/08:00am 29.0 - - - - ENE 9 17 5 9 1009.9 1009.8 -
14/07:30am 29.2 - - - - NE 7 13 4 7 1009.8 1009.7 -
14/07:00am 29.1 - - - - ENE 4 11 2 6 1009.6 1009.5 -
14/06:30am 28.5 - - - - ENE 6 13 3 7 1009.2 1009.1 -
14/06:00am 28.4 - - - - NE 6 9 3 5 1008.6 1008.5 -
14/05:30am 28.5 - - - - NNE 7 13 4 7 1008.1 1008.0 -
14/05:00am 28.6 - - - - NNE 7 13 4 7 1007.5 1007.4 -
14/04:30am 28.8 - - - - NNE 6 17 3 9 1007.2 1007.1 -
14/04:00am 28.9 - - - - NNE 7 13 4 7 1006.7 1006.6 -
14/03:30am 29.0 - - - - NNW 6 9 3 5 1006.9 1006.8 -
14/03:00am 29.1 - - - - NNE 7 17 4 9 1006.9 1006.8 -
14/02:30am 29.1 - - - - NNE 7 17 4 9 1007.0 1006.9 -
14/02:00am 29.3 - - - - NNE 4 7 2 4 1007.1 1007.0 -
14/01:30am 29.4 - - - - N 4 9 2 5 1007.0 1006.9 -
14/01:00am 29.4 - - - - NNW 7 19 4 10 1006.7 1006.6 -
14/12:30am 29.5 - - - - NNW 7 20 4 11 1006.8 1006.7 -
14/12:00am 29.7 - - - - N 7 13 4 7 1007.9 1007.8 -
 
Date/Time
CST
Temp
°C
App
Temp
°C
Dew
Point
°C
Rel
Hum
%
Delta-T
°C
Wind Press
QNH
hPa
Press
MSL
hPa
Rain since
9am
mm
Dir  Spd
km/h
Gust
km/h
Spd
kts
Gust
kts
13/11:30pm 29.5 - - - - NNW 7 13 4 7 1008.3 1008.2 -
13/11:00pm 29.3 - - - - NW 6 11 3 6 1008.5 1008.4 -
13/10:30pm 29.5 - - - - W 9 13 5 7 1008.4 1008.3 -
13/10:00pm 29.4 - - - - WNW 11 17 6 9 1008.1 1008.0 -
13/09:30pm 29.5 - - - - W 11 15 6 8 1008.8 1008.7 -

Latest Capital City Observations: Canberra | Sydney | Melbourne | Brisbane | Adelaide | Perth | Hobart | Darwin

Other Formats:

Comma delimited format used in spreadsheet applications
http://www.bom.gov.au/fwo/IDD60901/IDD60901.95122.axf

JavaScript Object Notation format (JSON) in row-major order
http://www.bom.gov.au/fwo/IDD60901/IDD60901.95122.json